createdAt,value
2018-02-07T00:01:47.692Z,-4.10
2018-02-07T00:04:14.109Z,-4.20
2018-02-07T00:06:40.524Z,-4.20
2018-02-07T00:09:06.906Z,-4.20
2018-02-07T00:11:34.056Z,-4.20
2018-02-07T00:14:00.441Z,-4.30
2018-02-07T00:16:26.890Z,-4.10
2018-02-07T00:18:53.295Z,-4.20
2018-02-07T00:21:19.682Z,-4.20
2018-02-07T00:23:46.126Z,-4.20
2018-02-07T00:26:12.545Z,-4.20
2018-02-07T00:28:38.961Z,-4.20
2018-02-07T00:31:05.359Z,-4.20
2018-02-07T00:33:31.766Z,-4.10
2018-02-07T00:35:58.172Z,-4.10
2018-02-07T00:38:24.565Z,-4.00
2018-02-07T00:40:50.969Z,-4.00
2018-02-07T00:43:18.109Z,-4.00
2018-02-07T00:45:44.501Z,-4.10
2018-02-07T00:48:10.930Z,-4.00
2018-02-07T00:50:37.306Z,-4.00
2018-02-07T00:53:03.778Z,-4.10
2018-02-07T00:55:30.183Z,-4.10
2018-02-07T00:57:56.595Z,-4.10
2018-02-07T01:00:23.001Z,-4.00
2018-02-07T01:02:49.403Z,-4.10
2018-02-07T01:05:16.578Z,-4.20
2018-02-07T01:07:43.011Z,-4.20
2018-02-07T01:10:09.436Z,-4.20
2018-02-07T01:12:36.604Z,-4.30
2018-02-07T01:15:03.033Z,-4.40
2018-02-07T01:17:29.458Z,-4.20
2018-02-07T01:19:55.872Z,-4.10
2018-02-07T01:22:23.050Z,-4.00
2018-02-07T01:24:49.437Z,-4.10
2018-02-07T01:27:15.834Z,-4.00
2018-02-07T01:29:42.306Z,-3.90
2018-02-07T01:32:08.687Z,-3.80
2018-02-07T01:34:35.085Z,-3.70
2018-02-07T01:37:01.471Z,-3.60
2018-02-07T01:39:27.993Z,-3.40
2018-02-07T01:41:54.370Z,-3.20
2018-02-07T01:44:20.810Z,-3.10
2018-02-07T01:46:47.945Z,-2.90
2018-02-07T01:49:14.387Z,-3.00
2018-02-07T01:51:40.776Z,-2.90
2018-02-07T01:54:07.174Z,-2.90
2018-02-07T01:56:33.559Z,-2.90
2018-02-07T01:58:59.938Z,-2.90
2018-02-07T02:01:26.349Z,-2.90
2018-02-07T02:03:52.741Z,-2.90
2018-02-07T02:06:19.154Z,-2.90
2018-02-07T02:08:46.272Z,-2.90
2018-02-07T02:11:12.685Z,-2.90
2018-02-07T02:13:39.073Z,-2.90
2018-02-07T02:16:06.222Z,-2.90
2018-02-07T02:18:33.397Z,-2.90
2018-02-07T02:20:59.769Z,-2.90
2018-02-07T02:23:26.198Z,-2.90
2018-02-07T02:25:52.561Z,-2.90
2018-02-07T02:28:19.005Z,-2.80
2018-02-07T02:30:45.414Z,-2.80
2018-02-07T02:33:11.820Z,-2.90
2018-02-07T02:35:38.249Z,-2.80
2018-02-07T02:38:04.660Z,-2.80
2018-02-07T02:40:31.089Z,-2.80
2018-02-07T02:42:57.499Z,-2.80
2018-02-07T02:45:23.896Z,-2.70
2018-02-07T02:47:50.296Z,-2.70
2018-02-07T02:50:17.460Z,-2.60
2018-02-07T02:52:43.866Z,-2.70
2018-02-07T02:55:11.046Z,-2.70
2018-02-07T02:57:37.452Z,-2.70
2018-02-07T03:00:03.954Z,-2.60
2018-02-07T03:02:30.369Z,-2.60
2018-02-07T03:04:56.757Z,-2.70
2018-02-07T03:07:23.744Z,-2.70
2018-02-07T03:09:49.960Z,-2.80
2018-02-07T03:12:16.198Z,-2.70
2018-02-07T03:14:42.477Z,-2.70
2018-02-07T03:17:08.709Z,-2.70
2018-02-07T03:19:34.928Z,-2.60
2018-02-07T03:22:01.133Z,-2.60
2018-02-07T03:24:27.388Z,-2.60
2018-02-07T03:26:53.602Z,-2.60
2018-02-07T03:29:19.827Z,-2.60
2018-02-07T03:31:46.052Z,-2.60
2018-02-07T03:34:12.284Z,-2.60
2018-02-07T03:36:38.502Z,-2.60
2018-02-07T03:39:04.769Z,-2.60
2018-02-07T03:41:30.973Z,-2.60
2018-02-07T03:43:57.202Z,-2.60
2018-02-07T03:46:23.413Z,-2.70
2018-02-07T03:48:49.677Z,-2.60
2018-02-07T03:51:15.916Z,-2.60
2018-02-07T03:53:42.138Z,-2.50
2018-02-07T03:56:08.333Z,-2.50
2018-02-07T03:58:34.571Z,-2.50
2018-02-07T04:01:03.314Z,-2.40
2018-02-07T04:03:29.893Z,-2.50
2018-02-07T04:05:56.389Z,-2.50
2018-02-07T04:08:23.616Z,-2.50
2018-02-07T04:10:49.839Z,-2.60
2018-02-07T04:13:16.068Z,-2.50
2018-02-07T04:15:42.308Z,-2.50
2018-02-07T04:18:08.733Z,-2.50
2018-02-07T04:20:34.953Z,-2.50
2018-02-07T04:23:01.185Z,-2.40
2018-02-07T04:25:27.384Z,-2.50
2018-02-07T04:27:53.584Z,-2.50
2018-02-07T04:30:19.830Z,-2.50
2018-02-07T04:32:46.768Z,-2.50
2018-02-07T04:35:12.992Z,-2.50
2018-02-07T04:37:39.194Z,-2.50
2018-02-07T04:40:05.452Z,-2.50
2018-02-07T04:42:31.703Z,-2.50
2018-02-07T04:44:58.653Z,-2.50
2018-02-07T04:47:25.628Z,-2.40
2018-02-07T04:49:51.849Z,-2.50
2018-02-07T04:52:18.085Z,-2.40
2018-02-07T04:54:44.289Z,-2.40
2018-02-07T04:57:11.256Z,-2.40
2018-02-07T04:59:37.481Z,-2.40
2018-02-07T05:02:03.744Z,-2.50
2018-02-07T05:04:29.976Z,-2.50
2018-02-07T05:06:56.213Z,-2.40
2018-02-07T05:09:22.418Z,-2.50
2018-02-07T05:11:48.645Z,-2.40
2018-02-07T05:14:14.849Z,-2.40
2018-02-07T05:16:41.817Z,-2.50
2018-02-07T05:19:08.050Z,-2.50
2018-02-07T05:21:34.313Z,-2.50
2018-02-07T05:24:00.521Z,-2.40
2018-02-07T05:26:26.758Z,-2.40
2018-02-07T05:28:53.036Z,-2.30
2018-02-07T05:31:20.029Z,-2.40
2018-02-07T05:33:46.224Z,-2.40
2018-02-07T05:36:13.209Z,-2.40
2018-02-07T05:38:39.405Z,-2.40
2018-02-07T05:41:05.640Z,-2.40
2018-02-07T05:43:31.887Z,-2.40
2018-02-07T05:45:58.105Z,-2.40
2018-02-07T05:48:24.347Z,-2.40
2018-02-07T05:50:50.588Z,-2.40
2018-02-07T05:53:16.784Z,-2.40
2018-02-07T05:55:43.025Z,-2.40
2018-02-07T05:58:09.233Z,-2.30
2018-02-07T06:00:36.216Z,-2.30
2018-02-07T06:03:02.421Z,-2.40
2018-02-07T06:05:28.664Z,-2.30
2018-02-07T06:07:54.874Z,-2.30
2018-02-07T06:10:21.849Z,-2.20
2018-02-07T06:12:48.055Z,-2.30
2018-02-07T06:15:14.289Z,-2.20
2018-02-07T06:17:40.532Z,-2.20
2018-02-07T06:20:06.737Z,-2.20
2018-02-07T06:22:33.706Z,-2.30
2018-02-07T06:24:59.946Z,-2.40
2018-02-07T06:27:26.173Z,-2.30
2018-02-07T06:29:52.380Z,-2.30
2018-02-07T06:32:18.610Z,-2.30
2018-02-07T06:34:44.825Z,-2.20
2018-02-07T06:37:11.802Z,-2.20
2018-02-07T06:39:38.004Z,-2.30
2018-02-07T06:42:04.981Z,-2.20
2018-02-07T06:44:31.223Z,-2.20
2018-02-07T06:46:57.426Z,-2.20
2018-02-07T06:49:23.661Z,-2.20
2018-02-07T06:51:49.903Z,-2.20
2018-02-07T06:54:16.134Z,-2.20
2018-02-07T06:56:42.384Z,-2.10
2018-02-07T06:59:08.593Z,-2.10
2018-02-07T07:01:38.184Z,-2.10
2018-02-07T07:04:04.423Z,-2.10
2018-02-07T07:06:30.640Z,-2.10
2018-02-07T07:08:56.854Z,-2.10
2018-02-07T07:11:23.820Z,-2.20
2018-02-07T07:13:50.029Z,-2.20
2018-02-07T07:16:17.004Z,-2.20
2018-02-07T07:18:43.214Z,-2.20
2018-02-07T07:21:10.185Z,-2.10
2018-02-07T07:23:36.389Z,-2.20
2018-02-07T07:26:03.364Z,-2.10
2018-02-07T07:28:29.573Z,-2.10
2018-02-07T07:30:55.817Z,-2.10
2018-02-07T07:33:22.012Z,-2.00
2018-02-07T07:35:48.240Z,-2.00
2018-02-07T07:38:15.201Z,-2.00
2018-02-07T07:40:42.180Z,-1.90
2018-02-07T07:43:08.391Z,-1.90
2018-02-07T07:45:34.633Z,-1.90
2018-02-07T07:48:00.836Z,-1.90
2018-02-07T07:50:27.836Z,-1.80
2018-02-07T07:52:54.046Z,-1.90
2018-02-07T07:55:20.312Z,-1.90
2018-02-07T07:57:46.560Z,-2.00
2018-02-07T08:00:13.558Z,-2.00
2018-02-07T08:02:39.791Z,-2.10
2018-02-07T08:05:06.025Z,-2.00
2018-02-07T08:07:32.260Z,-1.90
2018-02-07T08:09:58.487Z,-1.90
2018-02-07T08:12:24.735Z,-1.80
2018-02-07T08:14:50.959Z,-1.80
2018-02-07T08:17:17.185Z,-1.80
2018-02-07T08:19:43.400Z,-1.70
2018-02-07T08:22:09.632Z,-1.60
2018-02-07T08:24:35.849Z,-1.60
2018-02-07T08:27:02.113Z,-1.60
2018-02-07T08:29:28.322Z,-1.50
2018-02-07T08:31:54.565Z,-1.50
2018-02-07T08:34:20.761Z,-1.50
2018-02-07T08:36:46.988Z,-1.60
2018-02-07T08:39:13.193Z,-1.60
2018-02-07T08:41:40.187Z,-1.50
2018-02-07T08:44:06.396Z,-1.60
2018-02-07T08:46:32.638Z,-1.50
2018-02-07T08:48:58.839Z,-1.40
2018-02-07T08:51:25.857Z,-1.50
2018-02-07T08:53:52.070Z,-1.60
2018-02-07T08:56:19.048Z,-1.50
2018-02-07T08:58:45.269Z,-1.50
2018-02-07T09:01:11.504Z,-1.40
2018-02-07T09:03:37.741Z,-1.40
2018-02-07T09:06:03.995Z,-1.30
2018-02-07T09:08:30.221Z,-1.20
2018-02-07T09:10:56.466Z,-1.20
2018-02-07T09:13:22.715Z,-1.20
2018-02-07T09:15:48.938Z,-1.20
2018-02-07T09:18:15.174Z,-1.20
2018-02-07T09:20:41.395Z,-1.30
2018-02-07T09:23:07.632Z,-1.20
2018-02-07T09:25:33.856Z,-1.10
2018-02-07T09:28:00.105Z,-1.00
2018-02-07T09:30:26.333Z,-0.90
2018-02-07T09:32:52.552Z,-0.90
2018-02-07T09:35:18.850Z,-0.80
2018-02-07T09:37:45.081Z,-0.80
2018-02-07T09:40:11.330Z,-0.80
2018-02-07T09:42:37.558Z,-0.80
2018-02-07T09:45:03.795Z,-0.70
2018-02-07T09:47:30.009Z,-0.70
2018-02-07T09:49:56.256Z,-0.70
2018-02-07T09:52:22.489Z,-0.70
2018-02-07T09:54:48.764Z,-0.70
2018-02-07T09:57:15.014Z,-0.70
2018-02-07T09:59:41.992Z,-0.80
2018-02-07T10:02:08.225Z,-0.80
2018-02-07T10:04:34.428Z,-0.90
2018-02-07T10:07:00.660Z,-1.00
2018-02-07T10:09:26.901Z,-1.00
2018-02-07T10:11:53.142Z,-1.00
2018-02-07T10:14:19.354Z,-1.00
2018-02-07T10:16:45.585Z,-1.10
2018-02-07T10:19:11.828Z,-1.10
2018-02-07T10:21:38.043Z,-1.00
2018-02-07T10:24:04.276Z,-1.00
2018-02-07T10:26:30.489Z,-0.90
2018-02-07T10:28:57.457Z,-0.90
2018-02-07T10:31:23.668Z,-1.00
2018-02-07T10:33:50.648Z,-0.90
2018-02-07T10:36:16.856Z,-1.00
2018-02-07T10:38:43.090Z,-0.80
2018-02-07T10:41:09.323Z,-0.80
2018-02-07T10:43:35.568Z,-0.90
2018-02-07T10:46:01.779Z,-0.80
2018-02-07T10:48:28.055Z,-0.90
2018-02-07T10:50:54.329Z,-0.90
2018-02-07T10:53:20.591Z,-0.90
2018-02-07T10:55:46.801Z,-0.90
2018-02-07T10:58:13.038Z,-1.00
2018-02-07T11:00:39.260Z,-1.00
2018-02-07T11:03:05.501Z,-0.90
2018-02-07T11:05:31.717Z,-1.00
2018-02-07T11:07:57.994Z,-0.90
2018-02-07T11:10:24.244Z,-0.80
2018-02-07T11:12:50.501Z,-0.60
2018-02-07T11:15:16.706Z,-0.60
2018-02-07T11:17:42.944Z,-0.50
2018-02-07T11:20:09.933Z,-0.30
2018-02-07T11:22:36.166Z,-0.30
2018-02-07T11:25:02.416Z,-0.10
2018-02-07T11:27:28.651Z,0.00
2018-02-07T11:29:54.865Z,0.00
2018-02-07T11:32:21.100Z,0.10
2018-02-07T11:34:47.323Z,0.10
2018-02-07T11:37:13.573Z,0.10
2018-02-07T11:39:39.810Z,0.10
2018-02-07T11:42:06.059Z,0.20
2018-02-07T11:44:33.112Z,0.50
2018-02-07T11:46:59.361Z,0.40
2018-02-07T11:49:25.660Z,0.40
2018-02-07T11:51:51.945Z,0.30
2018-02-07T11:54:18.161Z,0.20
2018-02-07T11:56:44.400Z,0.30
2018-02-07T11:59:10.617Z,0.30
2018-02-07T12:01:36.894Z,0.20
2018-02-07T12:04:03.141Z,0.10
2018-02-07T12:06:29.372Z,0.10
2018-02-07T12:08:55.665Z,0.00
2018-02-07T12:11:21.880Z,0.00
2018-02-07T12:13:48.140Z,0.00
2018-02-07T12:16:14.358Z,-0.10
2018-02-07T12:18:40.624Z,0.00
2018-02-07T12:21:06.842Z,0.10
2018-02-07T12:23:33.115Z,0.10
2018-02-07T12:25:59.332Z,0.20
2018-02-07T12:28:26.310Z,0.00
2018-02-07T12:30:52.608Z,0.00
2018-02-07T12:33:19.569Z,0.00
2018-02-07T12:35:45.804Z,-0.10
2018-02-07T12:38:12.025Z,0.00
2018-02-07T12:40:38.284Z,0.00
2018-02-07T12:43:04.513Z,-0.10
2018-02-07T12:45:30.794Z,-0.10
2018-02-07T12:47:57.001Z,-0.10
2018-02-07T12:50:23.251Z,-0.20
2018-02-07T12:52:49.508Z,-0.30
2018-02-07T12:55:16.461Z,-0.40
2018-02-07T12:57:42.691Z,-0.40
2018-02-07T13:00:08.902Z,-0.50
2018-02-07T13:02:35.896Z,-0.60
2018-02-07T13:05:02.100Z,-0.60
2018-02-07T13:07:28.390Z,-0.60
2018-02-07T13:09:54.606Z,-0.70
2018-02-07T13:12:20.893Z,-0.70
2018-02-07T13:14:47.116Z,-0.70
2018-02-07T13:17:13.333Z,-0.70
2018-02-07T13:19:40.385Z,-0.70
2018-02-07T13:22:07.337Z,-0.60
2018-02-07T13:24:33.582Z,-0.70
2018-02-07T13:26:59.813Z,-0.70
2018-02-07T13:29:26.044Z,-0.70
2018-02-07T13:31:52.286Z,-0.70
2018-02-07T13:34:18.509Z,-0.70
2018-02-07T13:36:44.750Z,-0.70
2018-02-07T13:39:10.976Z,-0.70
2018-02-07T13:41:37.230Z,-0.80
2018-02-07T13:44:03.473Z,-0.80
2018-02-07T13:46:29.704Z,-0.80
2018-02-07T13:48:55.958Z,-0.80
2018-02-07T13:51:22.947Z,-0.80
2018-02-07T13:53:49.189Z,-0.90
2018-02-07T13:56:15.416Z,-0.90
2018-02-07T13:58:41.644Z,-0.90
2018-02-07T14:01:07.890Z,-1.00
2018-02-07T14:03:34.132Z,-1.10
2018-02-07T14:06:00.354Z,-1.00
2018-02-07T14:08:26.630Z,-1.10
2018-02-07T14:10:52.833Z,-1.10
2018-02-07T14:13:19.060Z,-1.00
2018-02-07T14:15:45.283Z,-1.00
2018-02-07T14:18:11.550Z,-1.00
2018-02-07T14:20:37.805Z,-1.00
2018-02-07T14:23:04.049Z,-1.00
2018-02-07T14:25:30.263Z,-1.00
2018-02-07T14:27:56.546Z,-1.00
2018-02-07T14:30:22.785Z,-1.10
2018-02-07T14:32:56.849Z,-1.00
2018-02-07T14:35:23.144Z,-1.10
2018-02-07T14:37:49.438Z,-1.00
2018-02-07T14:40:15.751Z,-1.10
2018-02-07T14:42:42.012Z,-1.10
2018-02-07T14:45:08.253Z,-1.10
2018-02-07T14:47:35.219Z,-1.10
2018-02-07T14:50:01.738Z,-1.20
2018-02-07T14:52:28.710Z,-1.10
2018-02-07T14:54:54.983Z,-1.10
2018-02-07T14:57:21.218Z,-1.10
2018-02-07T14:59:47.476Z,-1.10
2018-02-07T15:02:15.589Z,-1.20
2018-02-07T15:04:41.813Z,-1.20
2018-02-07T15:07:08.008Z,-1.20
2018-02-07T15:09:34.972Z,-1.20
2018-02-07T15:12:01.220Z,-1.20
2018-02-07T15:14:27.432Z,-1.20
2018-02-07T15:16:53.704Z,-1.20
2018-02-07T15:19:19.904Z,-1.20
2018-02-07T15:21:46.158Z,-1.20
2018-02-07T15:24:12.364Z,-1.20
2018-02-07T15:26:38.620Z,-1.20
2018-02-07T15:29:04.836Z,-1.20
2018-02-07T15:31:31.079Z,-1.20
2018-02-07T15:33:57.318Z,-1.30
2018-02-07T15:36:23.532Z,-1.30
2018-02-07T15:38:49.825Z,-1.30
2018-02-07T15:41:16.781Z,-1.40
2018-02-07T15:43:43.041Z,-1.50
2018-02-07T15:46:09.252Z,-1.40
2018-02-07T15:48:35.479Z,-1.50
2018-02-07T15:51:02.471Z,-1.50
2018-02-07T15:53:28.749Z,-1.60
2018-02-07T15:55:54.992Z,-1.50
2018-02-07T15:58:21.217Z,-1.60
2018-02-07T16:00:47.453Z,-1.60
2018-02-07T16:03:13.686Z,-1.60
2018-02-07T16:05:39.917Z,-1.60
2018-02-07T16:08:06.131Z,-1.60
2018-02-07T16:10:32.380Z,-1.60
2018-02-07T16:12:58.615Z,-1.60
2018-02-07T16:15:24.817Z,-1.60
2018-02-07T16:17:51.050Z,-1.60
2018-02-07T16:20:17.284Z,-1.60
2018-02-07T16:22:43.527Z,-1.60
2018-02-07T16:25:09.747Z,-1.60
2018-02-07T16:27:35.977Z,-1.60
2018-02-07T16:30:02.205Z,-1.70
2018-02-07T16:32:28.433Z,-1.60
2018-02-07T16:34:54.632Z,-1.70
2018-02-07T16:37:20.857Z,-1.70
2018-02-07T16:39:47.814Z,-1.70
2018-02-07T16:42:14.792Z,-1.70
2018-02-07T16:44:41.010Z,-1.70
2018-02-07T16:47:07.222Z,-1.70
2018-02-07T16:49:34.216Z,-1.70
2018-02-07T16:52:00.426Z,-1.70
2018-02-07T16:54:26.683Z,-1.70
2018-02-07T16:56:52.908Z,-1.70
2018-02-07T16:59:19.181Z,-1.70
2018-02-07T17:01:45.484Z,-1.70
2018-02-07T17:04:11.720Z,-1.70
2018-02-07T17:06:37.950Z,-1.70
2018-02-07T17:09:04.186Z,-1.70
2018-02-07T17:11:30.413Z,-1.70
2018-02-07T17:13:56.624Z,-1.80
2018-02-07T17:16:22.864Z,-1.80
2018-02-07T17:18:49.067Z,-1.80
2018-02-07T17:21:15.299Z,-1.80
2018-02-07T17:23:41.570Z,-1.80
2018-02-07T17:26:07.792Z,-1.90
2018-02-07T17:28:34.031Z,-1.80
2018-02-07T17:31:00.232Z,-1.80
2018-02-07T17:33:26.453Z,-1.90
2018-02-07T17:35:52.661Z,-1.90
2018-02-07T17:38:19.064Z,-1.90
2018-02-07T17:40:45.305Z,-1.90
2018-02-07T17:43:12.266Z,-1.90
2018-02-07T17:45:38.493Z,-1.90
2018-02-07T17:48:04.696Z,-1.90
2018-02-07T17:50:30.913Z,-1.90
2018-02-07T17:52:57.116Z,-1.90
2018-02-07T17:55:23.347Z,-1.90
2018-02-07T17:57:49.565Z,-1.90
2018-02-07T18:00:17.590Z,-1.90
2018-02-07T18:02:43.886Z,-2.00
2018-02-07T18:05:10.210Z,-2.00
2018-02-07T18:07:36.527Z,-2.00
2018-02-07T18:10:02.769Z,-2.10
2018-02-07T18:12:28.999Z,-2.00
2018-02-07T18:14:55.258Z,-2.10
2018-02-07T18:17:21.499Z,-2.00
2018-02-07T18:19:47.727Z,-2.00
2018-02-07T18:22:13.991Z,-2.10
2018-02-07T18:24:40.894Z,-2.10
2018-02-07T18:27:07.661Z,-2.00
2018-02-07T18:29:33.969Z,-2.00
2018-02-07T18:32:00.213Z,-2.10
2018-02-07T18:36:33.458Z,-2.10
2018-02-07T18:38:59.883Z,-2.10
2018-02-07T18:41:26.298Z,-2.10
2018-02-07T18:43:53.495Z,-2.10
2018-02-07T18:46:19.962Z,-2.10
2018-02-07T18:48:46.380Z,-2.10
2018-02-07T18:51:12.776Z,-2.10
2018-02-07T18:53:39.183Z,-2.00
2018-02-07T18:56:05.673Z,-2.00
2018-02-07T18:58:32.082Z,-2.00
2018-02-07T19:00:58.481Z,-2.00
2018-02-07T19:03:24.877Z,-2.00
2018-02-07T19:05:51.294Z,-2.00
2018-02-07T19:09:03.173Z,-2.00
2018-02-07T19:11:30.318Z,-2.00
2018-02-07T19:13:59.444Z,-2.00
2018-02-07T19:16:28.258Z,-2.00
2018-02-07T19:18:55.850Z,-2.00
2018-02-07T19:21:23.395Z,-2.00
2018-02-07T19:23:51.458Z,-2.00
2018-02-07T19:26:17.956Z,-2.00
2018-02-07T19:28:46.989Z,-2.00
2018-02-07T19:31:14.205Z,-2.00
2018-02-07T19:33:40.584Z,-2.10
2018-02-07T19:36:06.985Z,-2.00
2018-02-07T19:38:33.408Z,-2.00
2018-02-07T19:40:59.798Z,-2.00
2018-02-07T19:43:26.232Z,-2.00
2018-02-07T19:45:52.614Z,-2.00
2018-02-07T19:48:19.020Z,-2.00
2018-02-07T19:50:46.148Z,-2.00
2018-02-07T19:53:12.582Z,-2.00
2018-02-07T19:55:39.018Z,-2.00
2018-02-07T19:58:05.401Z,-2.00
2018-02-07T20:00:31.891Z,-2.00
2018-02-07T20:02:59.022Z,-2.00
2018-02-07T20:05:25.488Z,-2.10
2018-02-07T20:07:52.618Z,-2.00
2018-02-07T20:10:19.034Z,-2.10
2018-02-07T20:12:45.432Z,-2.00
2018-02-07T20:15:11.875Z,-2.00
2018-02-07T20:17:38.282Z,-2.00
2018-02-07T20:20:05.403Z,-2.00
2018-02-07T20:22:31.817Z,-2.10
2018-02-07T20:24:58.233Z,-2.00
2018-02-07T20:27:24.630Z,-2.00
2018-02-07T20:29:51.781Z,-2.00
2018-02-07T20:32:18.897Z,-2.10
2018-02-07T20:34:45.317Z,-2.10
2018-02-07T20:37:11.722Z,-2.10
2018-02-07T20:39:38.161Z,-2.10
2018-02-07T20:42:04.570Z,-2.00
2018-02-07T20:44:31.733Z,-2.10
2018-02-07T20:46:58.877Z,-2.10
2018-02-07T20:49:26.061Z,-2.10
2018-02-07T20:51:53.208Z,-2.10
2018-02-07T20:54:19.600Z,-2.10
2018-02-07T20:56:46.037Z,-2.10
2018-02-07T20:59:12.408Z,-2.10
2018-02-07T21:01:38.811Z,-2.10
2018-02-07T21:04:05.212Z,-2.10
2018-02-07T21:06:31.626Z,-2.10
2018-02-07T21:08:58.062Z,-2.10
2018-02-07T21:11:24.456Z,-2.10
2018-02-07T21:13:51.610Z,-2.10
2018-02-07T21:16:18.850Z,-2.10
2018-02-07T21:18:45.249Z,-2.10
2018-02-07T21:21:11.651Z,-2.10
2018-02-07T21:23:38.056Z,-2.10
2018-02-07T21:26:04.458Z,-2.10
2018-02-07T21:28:30.882Z,-2.10
2018-02-07T21:30:57.278Z,-2.10
2018-02-07T21:33:30.712Z,-2.10
2018-02-07T21:35:57.101Z,-2.10
2018-02-07T21:38:24.250Z,-2.10
2018-02-07T21:40:51.386Z,-2.10
2018-02-07T21:43:17.862Z,-2.20
2018-02-07T21:45:44.266Z,-2.10
2018-02-07T21:48:11.428Z,-2.10
2018-02-07T21:50:38.560Z,-2.10
2018-02-07T21:53:04.973Z,-2.10
2018-02-07T21:55:31.384Z,-2.10
2018-02-07T21:57:57.797Z,-2.00
2018-02-07T22:00:24.177Z,-2.10
2018-02-07T22:02:50.614Z,-2.00
2018-02-07T22:05:17.039Z,-2.00
2018-02-07T22:07:43.459Z,-2.00
2018-02-07T22:10:09.878Z,-2.00
2018-02-07T22:12:36.309Z,-2.00
2018-02-07T22:15:02.775Z,-2.00
2018-02-07T22:17:29.142Z,-2.00
2018-02-07T22:19:56.294Z,-2.00
2018-02-07T22:22:23.435Z,-2.00
2018-02-07T22:24:49.837Z,-2.10
2018-02-07T22:27:16.240Z,-2.00
2018-02-07T22:29:42.657Z,-2.00
2018-02-07T22:32:09.787Z,-2.00
2018-02-07T22:34:36.213Z,-2.00
2018-02-07T22:37:02.618Z,-2.00
2018-02-07T22:39:29.025Z,-2.00
2018-02-07T22:41:55.445Z,-2.00
2018-02-07T22:44:22.639Z,-2.00
2018-02-07T22:46:49.013Z,-2.00
2018-02-07T22:49:15.413Z,-2.00
2018-02-07T22:51:41.798Z,-2.00
2018-02-07T22:54:08.954Z,-2.00
2018-02-07T22:56:36.082Z,-2.00
2018-02-07T22:59:02.499Z,-2.10
2018-02-07T23:01:28.918Z,-2.10
2018-02-07T23:03:55.313Z,-2.10
2018-02-07T23:06:21.765Z,-2.10
2018-02-07T23:08:48.186Z,-2.10
2018-02-07T23:11:14.626Z,-2.10
2018-02-07T23:13:41.035Z,-2.10
2018-02-07T23:16:08.208Z,-2.20
2018-02-07T23:18:34.608Z,-2.20
2018-02-07T23:21:01.019Z,-2.20
2018-02-07T23:23:27.394Z,-2.20
2018-02-07T23:25:54.554Z,-2.20
2018-02-07T23:28:20.927Z,-2.20
2018-02-07T23:30:47.333Z,-2.10
2018-02-07T23:33:13.710Z,-2.10
2018-02-07T23:35:41.193Z,-2.10
2018-02-07T23:38:08.304Z,-2.10
2018-02-07T23:40:34.702Z,-2.20
2018-02-07T23:43:01.085Z,-2.10
2018-02-07T23:45:27.481Z,-2.10
2018-02-07T23:47:53.878Z,-2.10
2018-02-07T23:50:21.046Z,-2.10
2018-02-07T23:52:48.191Z,-2.10
2018-02-07T23:55:15.311Z,-2.10
2018-02-07T23:57:41.705Z,-2.20
